Currently 68°F in Simi Valley, California, USA
68°F
69°F / 68°F
16 mph NE
0.00"
Monday, December 11, 2017 3:09 AM PST

Simi Valley, California Climate Summary
Typical December Day

Normal High:    65.0°F (18.3°C)
Normal Low:    46.9°F (8.3°C)
Average:    55.5°F (13.0°C)

Hour    Temperature    Wind Speed    Humidity
12:00 AM    52°F (11°C)    4 mph    59%
1:00 AM    51°F (11°C)    4 mph    59%
2:00 AM    51°F (11°C)    5 mph    60%
3:00 AM    51°F (10°C)    5 mph    60%
4:00 AM    50°F (10°C)    4 mph    61%
5:00 AM    50°F (10°C)    5 mph    61%
6:00 AM    50°F (10°C)    5 mph    61%
7:00 AM    50°F (10°C)    5 mph    61%
8:00 AM    51°F (11°C)    5 mph    60%
9:00 AM    55°F (13°C)    5 mph    56%
10:00 AM    59°F (15°C)    6 mph    51%
11:00 AM    61°F (16°C)    6 mph    47%
12:00 PM    63°F (17°C)    6 mph    44%
1:00 PM    64°F (18°C)    6 mph    43%
2:00 PM    64°F (18°C)    6 mph    42%
3:00 PM    63°F (17°C)    6 mph    44%
4:00 PM    62°F (17°C)    6 mph    47%
5:00 PM    59°F (15°C)    5 mph    52%
6:00 PM    57°F (14°C)    4 mph    54%
7:00 PM    55°F (13°C)    5 mph    56%
8:00 PM    54°F (12°C)    4 mph    57%
9:00 PM    53°F (12°C)    5 mph    58%
10:00 PM    52°F (11°C)    5 mph    59%
11:00 PM    52°F (11°C)    5 mph    59%
 

The Simi Valley, California weather pages are a service of WeatherCurrents.
Copyright ©Mon Dec 11 03:10:34 PST 2017  WeatherCurrents. All rights reserved. - Submit questions and comments - Privacy Policy